sensor_id;sensor_type;location;lat;lon;timestamp;pressure;altitude;pressure_sealevel;temperature;humidity
76358;BME280;65185;21.060;105.826;2023-03-20T00:01:55;100991.06;;;23.37;100.00
76358;BME280;65185;21.060;105.826;2023-03-20T00:04:21;100998.03;;;23.34;100.00
76358;BME280;65185;21.060;105.826;2023-03-20T00:07:17;101010.25;;;23.37;100.00
76358;BME280;65185;21.060;105.826;2023-03-20T00:09:44;101014.13;;;23.36;100.00
76358;BME280;65185;21.060;105.826;2023-03-20T00:12:16;101022.00;;;23.37;100.00
76358;BME280;65185;21.060;105.826;2023-03-20T00:14:44;101025.09;;;23.36;100.00
76358;BME280;65185;21.060;105.826;2023-03-20T00:17:13;101019.28;;;23.37;100.00
76358;BME280;65185;21.060;105.826;2023-03-20T00:19:45;101026.50;;;23.42;100.00
76358;BME280;65185;21.060;105.826;2023-03-20T00:22:12;101034.25;;;23.40;100.00
76358;BME280;65185;21.060;105.826;2023-03-20T00:24:38;101027.16;;;23.39;100.00
76358;BME280;65185;21.060;105.826;2023-03-20T00:27:05;101027.97;;;23.39;100.00
76358;BME280;65185;21.060;105.826;2023-03-20T00:29:32;101041.31;;;23.41;100.00
76358;BME280;65185;21.060;105.826;2023-03-20T00:31:59;101039.06;;;23.43;100.00
76358;BME280;65185;21.060;105.826;2023-03-20T00:34:27;101043.75;;;23.42;100.00
76358;BME280;65185;21.060;105.826;2023-03-20T00:36:56;101042.28;;;23.45;100.00
76358;BME280;65185;21.060;105.826;2023-03-20T00:39:23;101051.63;;;23.44;100.00
76358;BME280;65185;21.060;105.826;2023-03-20T00:42:01;101063.72;;;23.43;100.00
76358;BME280;65185;21.060;105.826;2023-03-20T00:47:05;101074.84;;;23.46;100.00
76358;BME280;65185;21.060;105.826;2023-03-20T00:49:36;101080.00;;;23.48;100.00
76358;BME280;65185;21.060;105.826;2023-03-20T00:52:04;101083.34;;;23.53;100.00
76358;BME280;65185;21.060;105.826;2023-03-20T00:54:31;101075.28;;;23.57;100.00
76358;BME280;65185;21.060;105.826;2023-03-20T00:57:23;101088.50;;;23.55;100.00
76358;BME280;65185;21.060;105.826;2023-03-20T01:00:04;101086.91;;;23.54;100.00
76358;BME280;65185;21.060;105.826;2023-03-20T01:02:32;101090.78;;;23.53;100.00
76358;BME280;65185;21.060;105.826;2023-03-20T01:05:00;101093.50;;;23.53;100.00
76358;BME280;65185;21.060;105.826;2023-03-20T01:07:28;101103.84;;;23.56;100.00
76358;BME280;65185;21.060;105.826;2023-03-20T01:09:55;101100.41;;;23.59;100.00
76358;BME280;65185;21.060;105.826;2023-03-20T01:12:22;101110.56;;;23.58;100.00
76358;BME280;65185;21.060;105.826;2023-03-20T01:14:52;101121.09;;;23.56;100.00
76358;BME280;65185;21.060;105.826;2023-03-20T01:17:21;101117.38;;;23.52;100.00
76358;BME280;65185;21.060;105.826;2023-03-20T01:19:48;101128.84;;;23.54;100.00
76358;BME280;65185;21.060;105.826;2023-03-20T01:22:15;101127.38;;;23.57;100.00
76358;BME280;65185;21.060;105.826;2023-03-20T01:24:44;101138.19;;;23.53;100.00
76358;BME280;65185;21.060;105.826;2023-03-20T01:27:18;101128.72;;;23.51;100.00
76358;BME280;65185;21.060;105.826;2023-03-20T01:29:45;101129.16;;;23.53;100.00
76358;BME280;65185;21.060;105.826;2023-03-20T01:32:15;101127.91;;;23.50;100.00
76358;BME280;65185;21.060;105.826;2023-03-20T01:34:42;101130.28;;;23.52;100.00
76358;BME280;65185;21.060;105.826;2023-03-20T01:37:17;101131.25;;;23.56;100.00
76358;BME280;65185;21.060;105.826;2023-03-20T01:39:44;101132.88;;;23.57;100.00
76358;BME280;65185;21.060;105.826;2023-03-20T01:42:14;101142.75;;;23.49;100.00
76358;BME280;65185;21.060;105.826;2023-03-20T01:44:41;101135.78;;;23.52;100.00
76358;BME280;65185;21.060;105.826;2023-03-20T01:47:16;101144.75;;;23.61;100.00
76358;BME280;65185;21.060;105.826;2023-03-20T01:52:41;101152.50;;;23.59;100.00
76358;BME280;65185;21.060;105.826;2023-03-20T01:55:08;101156.53;;;23.61;100.00
76358;BME280;65185;21.060;105.826;2023-03-20T01:57:35;101157.19;;;23.58;100.00
76358;BME280;65185;21.060;105.826;2023-03-20T02:00:09;101158.66;;;23.56;100.00
76358;BME280;65185;21.060;105.826;2023-03-20T02:02:37;101153.78;;;23.61;100.00
76358;BME280;65185;21.060;105.826;2023-03-20T02:05:08;101139.28;;;23.61;100.00
76358;BME280;65185;21.060;105.826;2023-03-20T02:07:36;101141.50;;;23.68;100.00
76358;BME280;65185;21.060;105.826;2023-03-20T02:10:12;101138.56;;;23.73;100.00
76358;BME280;65185;21.060;105.826;2023-03-20T02:12:40;101141.28;;;23.73;100.00
76358;BME280;65185;21.060;105.826;2023-03-20T02:15:07;101138.59;;;23.64;100.00
76358;BME280;65185;21.060;105.826;2023-03-20T02:17:37;101132.06;;;23.56;100.00
76358;BME280;65185;21.060;105.826;2023-03-20T02:20:21;101142.88;;;23.53;100.00
76358;BME280;65185;21.060;105.826;2023-03-20T02:23:15;101140.00;;;23.49;100.00
76358;BME280;65185;21.060;105.826;2023-03-20T02:48:51;101137.75;;;23.72;100.00
76358;BME280;65185;21.060;105.826;2023-03-20T02:51:34;101134.31;;;23.75;100.00
76358;BME280;65185;21.060;105.826;2023-03-20T02:54:26;101134.13;;;23.80;100.00
76358;BME280;65185;21.060;105.826;2023-03-20T03:02:20;101126.63;;;23.89;100.00
76358;BME280;65185;21.060;105.826;2023-03-20T03:05:01;101127.03;;;24.00;100.00
76358;BME280;65185;21.060;105.826;2023-03-20T03:07:32;101121.88;;;23.98;100.00
76358;BME280;65185;21.060;105.826;2023-03-20T03:12:32;101115.03;;;24.04;100.00
76358;BME280;65185;21.060;105.826;2023-03-20T03:15:18;101121.59;;;24.12;100.00
76358;BME280;65185;21.060;105.826;2023-03-20T03:17:47;101124.66;;;24.11;100.00
76358;BME280;65185;21.060;105.826;2023-03-20T03:20:35;101112.09;;;24.10;100.00
76358;BME280;65185;21.060;105.826;2023-03-20T03:23:04;101117.25;;;24.11;100.00
76358;BME280;65185;21.060;105.826;2023-03-20T03:25:40;101108.06;;;24.28;100.00
76358;BME280;65185;21.060;105.826;2023-03-20T03:28:25;101117.69;;;24.34;100.00
76358;BME280;65185;21.060;105.826;2023-03-20T03:30:55;101108.06;;;24.28;100.00
76358;BME280;65185;21.060;105.826;2023-03-20T03:33:43;101104.41;;;24.24;100.00
76358;BME280;65185;21.060;105.826;2023-03-20T03:36:31;101108.06;;;24.28;100.00
76358;BME280;65185;21.060;105.826;2023-03-20T03:42:14;101090.91;;;24.31;100.00
76358;BME280;65185;21.060;105.826;2023-03-20T03:45:27;101091.03;;;24.34;100.00
76358;BME280;65185;21.060;105.826;2023-03-20T03:47:38;101094.78;;;24.30;100.00
76358;BME280;65185;21.060;105.826;2023-03-20T03:50:35;101099.34;;;24.26;100.00
76358;BME280;65185;21.060;105.826;2023-03-20T03:53:09;101095.72;;;24.34;100.00
76358;BME280;65185;21.060;105.826;2023-03-20T03:55:42;101085.88;;;24.33;100.00
76358;BME280;65185;21.060;105.826;2023-03-20T04:01:17;101077.09;;;24.39;100.00
76358;BME280;65185;21.060;105.826;2023-03-20T04:03:49;101074.25;;;24.48;100.00
76358;BME280;65185;21.060;105.826;2023-03-20T04:06:17;101071.97;;;24.50;100.00
76358;BME280;65185;21.060;105.826;2023-03-20T04:08:44;101068.63;;;24.44;100.00
76358;BME280;65185;21.060;105.826;2023-03-20T04:11:20;101062.44;;;24.48;100.00
76358;BME280;65185;21.060;105.826;2023-03-20T04:13:48;101059.59;;;24.44;100.00
76358;BME280;65185;21.060;105.826;2023-03-20T04:16:18;101057.75;;;24.48;100.00
76358;BME280;65185;21.060;105.826;2023-03-20T04:18:46;101058.34;;;24.54;100.00
76358;BME280;65185;21.060;105.826;2023-03-20T04:21:13;101038.31;;;24.53;100.00
76358;BME280;65185;21.060;105.826;2023-03-20T04:23:41;101044.16;;;24.64;100.00
76358;BME280;65185;21.060;105.826;2023-03-20T04:26:08;101042.13;;;24.73;100.00
76358;BME280;65185;21.060;105.826;2023-03-20T04:28:35;101033.31;;;24.79;100.00
76358;BME280;65185;21.060;105.826;2023-03-20T04:31:02;101027.13;;;25.07;100.00
76358;BME280;65185;21.060;105.826;2023-03-20T04:33:29;101018.63;;;25.12;100.00
76358;BME280;65185;21.060;105.826;2023-03-20T04:35:55;101014.28;;;25.11;100.00
76358;BME280;65185;21.060;105.826;2023-03-20T04:38:23;101007.56;;;25.36;100.00
76358;BME280;65185;21.060;105.826;2023-03-20T04:40:49;100996.50;;;25.20;100.00
76358;BME280;65185;21.060;105.826;2023-03-20T04:43:16;100980.41;;;25.07;100.00
76358;BME280;65185;21.060;105.826;2023-03-20T04:45:46;100985.22;;;24.98;100.00
76358;BME280;65185;21.060;105.826;2023-03-20T04:48:13;100981.22;;;24.95;100.00
76358;BME280;65185;21.060;105.826;2023-03-20T04:50:40;100962.31;;;25.06;100.00
76358;BME280;65185;21.060;105.826;2023-03-20T04:53:07;100971.47;;;24.98;100.00
76358;BME280;65185;21.060;105.826;2023-03-20T04:55:34;100968.97;;;24.93;100.00
76358;BME280;65185;21.060;105.826;2023-03-20T04:58:01;100960.38;;;24.94;100.00
76358;BME280;65185;21.060;105.826;2023-03-20T05:00:57;100948.25;;;24.95;100.00
76358;BME280;65185;21.060;105.826;2023-03-20T05:03:24;100948.13;;;24.92;100.00
76358;BME280;65185;21.060;105.826;2023-03-20T05:06:00;100940.00;;;24.95;100.00
76358;BME280;65185;21.060;105.826;2023-03-20T05:08:27;100942.91;;;25.14;100.00
76358;BME280;65185;21.060;105.826;2023-03-20T05:10:54;100927.44;;;25.22;100.00
76358;BME280;65185;21.060;105.826;2023-03-20T05:13:24;100911.44;;;25.12;100.00
76358;BME280;65185;21.060;105.826;2023-03-20T05:15:54;100907.19;;;25.14;100.00
76358;BME280;65185;21.060;105.826;2023-03-20T05:18:46;100912.50;;;25.35;100.00
76358;BME280;65185;21.060;105.826;2023-03-20T05:21:17;100898.84;;;25.39;100.00
76358;BME280;65185;21.060;105.826;2023-03-20T05:23:43;100891.81;;;25.41;100.00
76358;BME280;65185;21.060;105.826;2023-03-20T05:26:10;100881.47;;;25.35;100.00
76358;BME280;65185;21.060;105.826;2023-03-20T05:28:37;100886.41;;;25.29;100.00
76358;BME280;65185;21.060;105.826;2023-03-20T05:31:04;100869.38;;;25.23;100.00
76358;BME280;65185;21.060;105.826;2023-03-20T05:33:31;100863.06;;;25.23;100.00
76358;BME280;65185;21.060;105.826;2023-03-20T05:35:57;100866.06;;;25.18;100.00
76358;BME280;65185;21.060;105.826;2023-03-20T05:38:24;100853.00;;;25.15;100.00
76358;BME280;65185;21.060;105.826;2023-03-20T05:40:58;100847.72;;;25.22;100.00
76358;BME280;65185;21.060;105.826;2023-03-20T05:43:26;100840.91;;;25.47;100.00
76358;BME280;65185;21.060;105.826;2023-03-20T05:45:56;100827.22;;;25.63;100.00
76358;BME280;65185;21.060;105.826;2023-03-20T05:48:23;100824.38;;;25.59;100.00
76358;BME280;65185;21.060;105.826;2023-03-20T05:50:50;100808.81;;;25.51;100.00
76358;BME280;65185;21.060;105.826;2023-03-20T05:53:17;100792.13;;;25.44;100.00
76358;BME280;65185;21.060;105.826;2023-03-20T05:55:43;100799.84;;;25.39;100.00
76358;BME280;65185;21.060;105.826;2023-03-20T05:58:11;100790.09;;;25.41;100.00
76358;BME280;65185;21.060;105.826;2023-03-20T06:00:38;100781.41;;;25.39;100.00
76358;BME280;65185;21.060;105.826;2023-03-20T06:03:05;100773.84;;;25.36;100.00
76358;BME280;65185;21.060;105.826;2023-03-20T06:05:33;100766.31;;;25.33;100.00
76358;BME280;65185;21.060;105.826;2023-03-20T06:08:01;100757.34;;;25.36;100.00
76358;BME280;65185;21.060;105.826;2023-03-20T06:10:28;100750.81;;;25.41;100.00
76358;BME280;65185;21.060;105.826;2023-03-20T06:12:56;100751.78;;;25.48;100.00
76358;BME280;65185;21.060;105.826;2023-03-20T06:15:23;100744.25;;;25.45;100.00
76358;BME280;65185;21.060;105.826;2023-03-20T06:17:49;100738.03;;;25.48;100.00
76358;BME280;65185;21.060;105.826;2023-03-20T06:20:16;100741.50;;;25.45;100.00
76358;BME280;65185;21.060;105.826;2023-03-20T06:22:44;100730.50;;;25.61;100.00
76358;BME280;65185;21.060;105.826;2023-03-20T06:25:14;100727.19;;;25.55;100.00
76358;BME280;65185;21.060;105.826;2023-03-20T06:27:53;100727.19;;;25.55;100.00
76358;BME280;65185;21.060;105.826;2023-03-20T06:30:24;100719.84;;;25.59;100.00
76358;BME280;65185;21.060;105.826;2023-03-20T06:32:50;100708.84;;;25.59;100.00
76358;BME280;65185;21.060;105.826;2023-03-20T06:35:17;100703.81;;;25.61;100.00
76358;BME280;65185;21.060;105.826;2023-03-20T06:37:44;100699.91;;;25.62;100.00
76358;BME280;65185;21.060;105.826;2023-03-20T06:40:11;100694.81;;;25.64;100.00
76358;BME280;65185;21.060;105.826;2023-03-20T06:42:38;100694.25;;;25.75;100.00
76358;BME280;65185;21.060;105.826;2023-03-20T06:45:05;100692.25;;;25.72;100.00
76358;BME280;65185;21.060;105.826;2023-03-20T06:47:33;100678.03;;;25.70;100.00
76358;BME280;65185;21.060;105.826;2023-03-20T06:49:59;100673.72;;;25.69;100.00
76358;BME280;65185;21.060;105.826;2023-03-20T06:52:26;100680.09;;;25.73;100.00
76358;BME280;65185;21.060;105.826;2023-03-20T06:54:53;100674.59;;;25.92;100.00
76358;BME280;65185;21.060;105.826;2023-03-20T06:57:21;100665.56;;;25.91;100.00
76358;BME280;65185;21.060;105.826;2023-03-20T06:59:48;100660.84;;;25.92;100.00
76358;BME280;65185;21.060;105.826;2023-03-20T07:02:14;100650.13;;;25.87;100.00
76358;BME280;65185;21.060;105.826;2023-03-20T07:04:42;100646.56;;;25.86;100.00
76358;BME280;65185;21.060;105.826;2023-03-20T07:07:08;100650.84;;;25.84;100.00
76358;BME280;65185;21.060;105.826;2023-03-20T07:09:35;100655.63;;;25.87;100.00
76358;BME280;65185;21.060;105.826;2023-03-20T07:12:02;100660.84;;;25.92;100.00
76358;BME280;65185;21.060;105.826;2023-03-20T07:14:29;100651.44;;;25.93;100.00
76358;BME280;65185;21.060;105.826;2023-03-20T07:16:56;100657.81;;;25.97;100.00
76358;BME280;65185;21.060;105.826;2023-03-20T07:19:23;100653.03;;;25.94;100.00
76358;BME280;65185;21.060;105.826;2023-03-20T07:21:55;100645.41;;;25.87;100.00
76358;BME280;65185;21.060;105.826;2023-03-20T07:24:23;100632.41;;;25.84;100.00
76358;BME280;65185;21.060;105.826;2023-03-20T07:26:50;100635.03;;;25.81;100.00
76358;BME280;65185;21.060;105.826;2023-03-20T07:29:17;100618.94;;;25.79;100.00
76358;BME280;65185;21.060;105.826;2023-03-20T07:31:44;100610.47;;;26.07;100.00
76358;BME280;65185;21.060;105.826;2023-03-20T07:34:11;100608.25;;;26.16;100.00
76358;BME280;65185;21.060;105.826;2023-03-20T07:36:38;100610.47;;;26.07;100.00
76358;BME280;65185;21.060;105.826;2023-03-20T07:39:07;100602.41;;;25.98;100.00
76358;BME280;65185;21.060;105.826;2023-03-20T07:41:34;100605.53;;;25.97;100.00
76358;BME280;65185;21.060;105.826;2023-03-20T07:44:01;100600.91;;;26.01;100.00
76358;BME280;65185;21.060;105.826;2023-03-20T07:46:28;100600.09;;;26.00;100.00
76358;BME280;65185;21.060;105.826;2023-03-20T07:48:54;100597.69;;;25.99;100.00
76358;BME280;65185;21.060;105.826;2023-03-20T07:51:23;100574.53;;;26.00;100.00
76358;BME280;65185;21.060;105.826;2023-03-20T07:53:50;100574.88;;;25.98;100.00
76358;BME280;65185;21.060;105.826;2023-03-20T07:56:17;100578.03;;;25.97;100.00
76358;BME280;65185;21.060;105.826;2023-03-20T07:58:44;100575.19;;;26.13;100.00
76358;BME280;65185;21.060;105.826;2023-03-20T08:01:10;100565.97;;;26.05;100.00
76358;BME280;65185;21.060;105.826;2023-03-20T08:03:37;100568.59;;;25.98;100.00
76358;BME280;65185;21.060;105.826;2023-03-20T08:06:04;100566.72;;;26.02;100.00
76358;BME280;65185;21.060;105.826;2023-03-20T08:08:33;100561.13;;;25.98;100.00
76358;BME280;65185;21.060;105.826;2023-03-20T08:11:00;100556.72;;;25.94;100.00
76358;BME280;65185;21.060;105.826;2023-03-20T08:13:27;100551.56;;;25.92;100.00
76358;BME280;65185;21.060;105.826;2023-03-20T08:15:54;100549.63;;;25.93;100.00
76358;BME280;65185;21.060;105.826;2023-03-20T08:18:20;100552.22;;;26.05;100.00
76358;BME280;65185;21.060;105.826;2023-03-20T08:20:47;100545.06;;;26.00;100.00
76358;BME280;65185;21.060;105.826;2023-03-20T08:23:17;100548.16;;;25.99;100.00
76358;BME280;65185;21.060;105.826;2023-03-20T08:25:51;100549.63;;;25.93;100.00
76358;BME280;65185;21.060;105.826;2023-03-20T08:28:20;100549.31;;;25.98;100.00
76358;BME280;65185;21.060;105.826;2023-03-20T08:30:47;100548.25;;;26.02;100.00
76358;BME280;65185;21.060;105.826;2023-03-20T08:33:15;100554.81;;;25.98;100.00
76358;BME280;65185;21.060;105.826;2023-03-20T08:35:43;100550.25;;;26.05;100.00
76358;BME280;65185;21.060;105.826;2023-03-20T08:38:11;100547.81;;;26.00;100.00
76358;BME280;65185;21.060;105.826;2023-03-20T08:40:42;100550.41;;;25.93;100.00
76358;BME280;65185;21.060;105.826;2023-03-20T08:43:09;100550.34;;;25.90;100.00
76358;BME280;65185;21.060;105.826;2023-03-20T08:45:37;100549.47;;;25.86;100.00
76358;BME280;65185;21.060;105.826;2023-03-20T08:48:04;100542.00;;;25.86;100.00
76358;BME280;65185;21.060;105.826;2023-03-20T08:50:30;100547.31;;;25.95;100.00
76358;BME280;65185;21.060;105.826;2023-03-20T08:52:57;100541.94;;;25.83;100.00
76358;BME280;65185;21.060;105.826;2023-03-20T08:55:24;100540.59;;;25.73;100.00
76358;BME280;65185;21.060;105.826;2023-03-20T08:57:51;100537.75;;;25.70;100.00
76358;BME280;65185;21.060;105.826;2023-03-20T09:00:19;100538.94;;;25.69;100.00
76358;BME280;65185;21.060;105.826;2023-03-20T09:02:47;100542.84;;;25.67;100.00
76358;BME280;65185;21.060;105.826;2023-03-20T09:05:14;100546.78;;;25.70;100.00
76358;BME280;65185;21.060;105.826;2023-03-20T09:07:41;100549.25;;;25.75;100.00
76358;BME280;65185;21.060;105.826;2023-03-20T09:10:09;100548.91;;;25.77;100.00
76358;BME280;65185;21.060;105.826;2023-03-20T09:12:36;100550.19;;;25.83;100.00
76358;BME280;65185;21.060;105.826;2023-03-20T09:15:04;100550.25;;;25.86;100.00
76358;BME280;65185;21.060;105.826;2023-03-20T09:17:31;100555.19;;;25.77;100.00
76358;BME280;65185;21.060;105.826;2023-03-20T09:19:58;100550.78;;;25.73;100.00
76358;BME280;65185;21.060;105.826;2023-03-20T09:22:25;100560.19;;;25.72;100.00
76358;BME280;65185;21.060;105.826;2023-03-20T09:24:52;100560.13;;;25.68;100.00
76358;BME280;65185;21.060;105.826;2023-03-20T09:27:18;100569.44;;;25.63;100.00
76358;BME280;65185;21.060;105.826;2023-03-20T09:29:46;100568.69;;;25.63;100.00
76358;BME280;65185;21.060;105.826;2023-03-20T09:32:14;100563.88;;;25.60;100.00
76358;BME280;65185;21.060;105.826;2023-03-20T09:34:41;100578.69;;;25.55;100.00
76358;BME280;65185;21.060;105.826;2023-03-20T09:37:08;100571.78;;;25.61;100.00
76358;BME280;65185;21.060;105.826;2023-03-20T09:39:34;100561.13;;;25.60;100.00
76358;BME280;65185;21.060;105.826;2023-03-20T09:42:55;100568.75;;;25.66;100.00
76358;BME280;65185;21.060;105.826;2023-03-20T09:47:43;100581.19;;;25.60;100.00
76358;BME280;65185;21.060;105.826;2023-03-20T09:50:16;100587.41;;;25.57;100.00
76358;BME280;65185;21.060;105.826;2023-03-20T09:55:31;100583.38;;;25.55;100.00
76358;BME280;65185;21.060;105.826;2023-03-20T09:58:14;100579.31;;;25.49;100.00
76358;BME280;65185;21.060;105.826;2023-03-20T10:00:44;100569.75;;;25.78;100.00
76358;BME280;65185;21.060;105.826;2023-03-20T10:03:21;100578.00;;;25.78;100.00
76358;BME280;65185;21.060;105.826;2023-03-20T10:06:12;100571.84;;;25.65;100.00
76358;BME280;65185;21.060;105.826;2023-03-20T10:08:39;100578.19;;;25.50;100.00
76358;BME280;65185;21.060;105.826;2023-03-20T10:17:03;100580.69;;;25.39;100.00
76358;BME280;65185;21.060;105.826;2023-03-20T10:25:13;100589.22;;;25.34;100.00
76358;BME280;65185;21.060;105.826;2023-03-20T10:28:02;100582.63;;;25.39;100.00
76358;BME280;65185;21.060;105.826;2023-03-20T10:30:42;100589.56;;;25.33;100.00
76358;BME280;65185;21.060;105.826;2023-03-20T10:33:37;100587.56;;;25.30;100.00
76358;BME280;65185;21.060;105.826;2023-03-20T10:38:58;100589.28;;;25.38;100.00
76358;BME280;65185;21.060;105.826;2023-03-20T10:41:34;100594.72;;;25.34;100.00
76358;BME280;65185;21.060;105.826;2023-03-20T10:44:02;100585.56;;;25.30;100.00
76358;BME280;65185;21.060;105.826;2023-03-20T10:46:34;100586.03;;;25.32;100.00
76358;BME280;65185;21.060;105.826;2023-03-20T10:51:56;100588.09;;;25.19;100.00
76358;BME280;65185;21.060;105.826;2023-03-20T10:57:25;100591.38;;;25.09;100.00
76358;BME280;65185;21.060;105.826;2023-03-20T10:59:56;100600.97;;;25.00;100.00
76358;BME280;65185;21.060;105.826;2023-03-20T11:02:32;100596.19;;;24.97;100.00
76358;BME280;65185;21.060;105.826;2023-03-20T11:05:06;100603.19;;;24.94;100.00
76358;BME280;65185;21.060;105.826;2023-03-20T11:07:37;100609.03;;;24.93;100.00
76358;BME280;65185;21.060;105.826;2023-03-20T11:12:43;100611.78;;;24.93;100.00
76358;BME280;65185;21.060;105.826;2023-03-20T11:15:26;100619.59;;;24.91;100.00
76358;BME280;65185;21.060;105.826;2023-03-20T11:18:00;100630.38;;;24.83;100.00
76358;BME280;65185;21.060;105.826;2023-03-20T11:20:34;100620.06;;;24.80;100.00
76358;BME280;65185;21.060;105.826;2023-03-20T11:23:05;100624.53;;;24.85;100.00
76358;BME280;65185;21.060;105.826;2023-03-20T11:25:48;100639.84;;;24.86;100.00
76358;BME280;65185;21.060;105.826;2023-03-20T11:33:50;100639.50;;;24.88;100.00
76358;BME280;65185;21.060;105.826;2023-03-20T11:38:47;100645.91;;;24.92;100.00
76358;BME280;65185;21.060;105.826;2023-03-20T11:41:23;100647.06;;;24.91;100.00
76358;BME280;65185;21.060;105.826;2023-03-20T11:43:54;100656.28;;;24.98;100.00
76358;BME280;65185;21.060;105.826;2023-03-20T11:46:22;100647.28;;;24.85;100.00
76358;BME280;65185;21.060;105.826;2023-03-20T11:49:25;100642.97;;;24.84;100.00
76358;BME280;65185;21.060;105.826;2023-03-20T11:51:53;100645.06;;;24.75;100.00
76358;BME280;65185;21.060;105.826;2023-03-20T11:54:22;100650.66;;;24.79;100.00
76358;BME280;65185;21.060;105.826;2023-03-20T11:56:57;100657.75;;;24.80;100.00
76358;BME280;65185;21.060;105.826;2023-03-20T11:59:35;100659.25;;;24.77;100.00
76358;BME280;65185;21.060;105.826;2023-03-20T12:02:11;100665.63;;;24.81;100.00
76358;BME280;65185;21.060;105.826;2023-03-20T12:04:44;100664.94;;;24.84;100.00
76358;BME280;65185;21.060;105.826;2023-03-20T12:07:19;100663.16;;;24.76;100.00
76358;BME280;65185;21.060;105.826;2023-03-20T12:10:09;100668.91;;;24.71;100.00
76358;BME280;65185;21.060;105.826;2023-03-20T12:12:46;100664.00;;;24.65;100.00
76358;BME280;65185;21.060;105.826;2023-03-20T12:30:09;100704.56;;;24.56;100.00
76358;BME280;65185;21.060;105.826;2023-03-20T12:35:23;100719.53;;;24.58;100.00
76358;BME280;65185;21.060;105.826;2023-03-20T12:37:52;100721.84;;;24.56;100.00
76358;BME280;65185;21.060;105.826;2023-03-20T12:40:26;100719.00;;;24.53;100.00
76358;BME280;65185;21.060;105.826;2023-03-20T12:43:25;100728.50;;;24.55;100.00
76358;BME280;65185;21.060;105.826;2023-03-20T12:46:24;100728.03;;;24.53;100.00
76358;BME280;65185;21.060;105.826;2023-03-20T12:49:11;100720.94;;;24.52;100.00
76358;BME280;65185;21.060;105.826;2023-03-20T12:52:48;100731.91;;;24.52;100.00
76358;BME280;65185;21.060;105.826;2023-03-20T13:04:03;100752.94;;;24.60;100.00
76358;BME280;65185;21.060;105.826;2023-03-20T13:06:54;100755.22;;;24.58;100.00
76358;BME280;65185;21.060;105.826;2023-03-20T13:23:09;100769.13;;;24.50;100.00
76358;BME280;65185;21.060;105.826;2023-03-20T13:26:00;100769.03;;;24.46;100.00
76358;BME280;65185;21.060;105.826;2023-03-20T13:28:36;100774.28;;;24.51;100.00
76358;BME280;65185;21.060;105.826;2023-03-20T13:32:25;100777.19;;;24.58;100.00
76358;BME280;65185;21.060;105.826;2023-03-20T13:34:27;100775.63;;;24.57;100.00
76358;BME280;65185;21.060;105.826;2023-03-20T13:37:14;100788.44;;;24.53;100.00
76358;BME280;65185;21.060;105.826;2023-03-20T13:39:50;100803.09;;;24.57;100.00
76358;BME280;65185;21.060;105.826;2023-03-20T13:42:27;100799.66;;;24.48;100.00
76358;BME280;65185;21.060;105.826;2023-03-20T13:45:02;100804.25;;;24.44;100.00
76358;BME280;65185;21.060;105.826;2023-03-20T13:47:30;100806.75;;;24.49;100.00
76358;BME280;65185;21.060;105.826;2023-03-20T13:50:11;100805.88;;;24.45;100.00
76358;BME280;65185;21.060;105.826;2023-03-20T13:53:22;100802.66;;;24.43;100.00
76358;BME280;65185;21.060;105.826;2023-03-20T13:56:03;100803.81;;;24.42;100.00
76358;BME280;65185;21.060;105.826;2023-03-20T13:59:00;100807.69;;;24.41;100.00
76358;BME280;65185;21.060;105.826;2023-03-20T14:04:23;100815.16;;;24.40;100.00
76358;BME280;65185;21.060;105.826;2023-03-20T14:09:37;100818.00;;;24.44;100.00
76358;BME280;65185;21.060;105.826;2023-03-20T14:12:06;100823.00;;;24.42;100.00
76358;BME280;65185;21.060;105.826;2023-03-20T14:14:52;100826.91;;;24.41;100.00
76358;BME280;65185;21.060;105.826;2023-03-20T14:17:26;100841.09;;;24.43;100.00
76358;BME280;65185;21.060;105.826;2023-03-20T14:19:54;100845.78;;;24.42;100.00
76358;BME280;65185;21.060;105.826;2023-03-20T14:24:55;100844.97;;;24.42;100.00
76358;BME280;65185;21.060;105.826;2023-03-20T14:27:28;100852.41;;;24.41;100.00
76358;BME280;65185;21.060;105.826;2023-03-20T14:29:56;100850.03;;;24.40;100.00
76358;BME280;65185;21.060;105.826;2023-03-20T14:32:33;100858.72;;;24.42;100.00
76358;BME280;65185;21.060;105.826;2023-03-20T14:38:03;100853.91;;;24.39;100.00
76358;BME280;65185;21.060;105.826;2023-03-20T14:40:38;100850.13;;;24.43;100.00
76358;BME280;65185;21.060;105.826;2023-03-20T14:46:01;100863.97;;;24.47;100.00
76358;BME280;65185;21.060;105.826;2023-03-20T14:48:33;100855.47;;;24.52;100.00
76358;BME280;65185;21.060;105.826;2023-03-20T14:51:39;100857.53;;;24.55;100.00
76358;BME280;65185;21.060;105.826;2023-03-20T14:56:49;100849.88;;;24.49;100.00
76358;BME280;65185;21.060;105.826;2023-03-20T14:59:23;100856.09;;;24.46;100.00
76358;BME280;65185;21.060;105.826;2023-03-20T15:01:56;100852.31;;;24.50;100.00